sensor_id;sensor_type;location;lat;lon;timestamp;temperature;humidity
11454;DHT22;5783;55.174;61.310;2023-04-06T00:01:18;22.30;29.90
11454;DHT22;5783;55.174;61.310;2023-04-06T00:03:47;22.20;30.00
11454;DHT22;5783;55.174;61.310;2023-04-06T00:06:16;22.20;30.00
11454;DHT22;5783;55.174;61.310;2023-04-06T00:08:45;22.20;30.00
11454;DHT22;5783;55.174;61.310;2023-04-06T00:11:14;22.30;30.00
11454;DHT22;5783;55.174;61.310;2023-04-06T00:13:44;22.30;30.00
11454;DHT22;5783;55.174;61.310;2023-04-06T00:16:13;22.30;30.00
11454;DHT22;5783;55.174;61.310;2023-04-06T00:18:43;22.30;30.00
11454;DHT22;5783;55.174;61.310;2023-04-06T00:21:13;22.30;29.70
11454;DHT22;5783;55.174;61.310;2023-04-06T00:23:42;22.30;29.80
11454;DHT22;5783;55.174;61.310;2023-04-06T00:26:11;22.30;29.70
11454;DHT22;5783;55.174;61.310;2023-04-06T00:28:41;22.40;29.70
11454;DHT22;5783;55.174;61.310;2023-04-06T00:31:10;22.40;30.10
11454;DHT22;5783;55.174;61.310;2023-04-06T00:33:39;22.40;29.60
11454;DHT22;5783;55.174;61.310;2023-04-06T00:36:08;22.40;29.60
11454;DHT22;5783;55.174;61.310;2023-04-06T00:38:37;22.40;29.50
11454;DHT22;5783;55.174;61.310;2023-04-06T00:41:06;22.40;29.40
11454;DHT22;5783;55.174;61.310;2023-04-06T00:43:35;22.40;29.30
11454;DHT22;5783;55.174;61.310;2023-04-06T00:46:05;22.40;28.90
11454;DHT22;5783;55.174;61.310;2023-04-06T00:48:34;22.50;29.20
11454;DHT22;5783;55.174;61.310;2023-04-06T00:51:03;22.50;29.10
11454;DHT22;5783;55.174;61.310;2023-04-06T00:53:32;22.50;29.00
11454;DHT22;5783;55.174;61.310;2023-04-06T00:56:01;22.50;28.80
11454;DHT22;5783;55.174;61.310;2023-04-06T00:58:30;22.50;28.90
11454;DHT22;5783;55.174;61.310;2023-04-06T01:01:00;22.50;28.90
11454;DHT22;5783;55.174;61.310;2023-04-06T01:03:29;22.40;28.70
11454;DHT22;5783;55.174;61.310;2023-04-06T01:05:58;22.40;28.50
11454;DHT22;5783;55.174;61.310;2023-04-06T01:08:27;22.40;28.60
11454;DHT22;5783;55.174;61.310;2023-04-06T01:10:56;22.40;28.30
11454;DHT22;5783;55.174;61.310;2023-04-06T01:13:29;22.40;28.70
11454;DHT22;5783;55.174;61.310;2023-04-06T01:15:58;22.40;28.90
11454;DHT22;5783;55.174;61.310;2023-04-06T01:18:27;22.30;28.90
11454;DHT22;5783;55.174;61.310;2023-04-06T01:20:57;22.30;29.20
11454;DHT22;5783;55.174;61.310;2023-04-06T01:23:26;22.30;29.40
11454;DHT22;5783;55.174;61.310;2023-04-06T01:25:55;22.30;29.30
11454;DHT22;5783;55.174;61.310;2023-04-06T01:28:24;22.30;29.30
11454;DHT22;5783;55.174;61.310;2023-04-06T01:30:53;22.30;29.50
11454;DHT22;5783;55.174;61.310;2023-04-06T01:33:22;22.30;29.40
11454;DHT22;5783;55.174;61.310;2023-04-06T01:35:52;22.30;29.20
11454;DHT22;5783;55.174;61.310;2023-04-06T01:38:21;22.30;29.20
11454;DHT22;5783;55.174;61.310;2023-04-06T01:40:51;22.30;29.30
11454;DHT22;5783;55.174;61.310;2023-04-06T01:43:20;22.30;29.00
11454;DHT22;5783;55.174;61.310;2023-04-06T01:45:49;22.30;29.10
11454;DHT22;5783;55.174;61.310;2023-04-06T01:48:19;22.40;29.10
11454;DHT22;5783;55.174;61.310;2023-04-06T01:50:48;22.40;29.00
11454;DHT22;5783;55.174;61.310;2023-04-06T01:53:17;22.40;28.90
11454;DHT22;5783;55.174;61.310;2023-04-06T01:55:46;22.40;29.10
11454;DHT22;5783;55.174;61.310;2023-04-06T01:58:15;22.40;29.10
11454;DHT22;5783;55.174;61.310;2023-04-06T02:00:44;22.40;29.10
11454;DHT22;5783;55.174;61.310;2023-04-06T02:03:14;22.40;29.00
11454;DHT22;5783;55.174;61.310;2023-04-06T02:05:43;22.40;29.00
11454;DHT22;5783;55.174;61.310;2023-04-06T02:08:12;22.50;29.10
11454;DHT22;5783;55.174;61.310;2023-04-06T02:10:41;22.50;29.10
11454;DHT22;5783;55.174;61.310;2023-04-06T02:13:10;22.50;29.00
11454;DHT22;5783;55.174;61.310;2023-04-06T02:15:39;22.60;29.00
11454;DHT22;5783;55.174;61.310;2023-04-06T02:18:08;22.60;29.00
11454;DHT22;5783;55.174;61.310;2023-04-06T02:20:37;22.60;28.90
11454;DHT22;5783;55.174;61.310;2023-04-06T02:23:07;22.60;28.90
11454;DHT22;5783;55.174;61.310;2023-04-06T02:25:36;22.60;28.80
11454;DHT22;5783;55.174;61.310;2023-04-06T02:28:05;22.70;28.80
11454;DHT22;5783;55.174;61.310;2023-04-06T02:30:34;22.70;28.70
11454;DHT22;5783;55.174;61.310;2023-04-06T02:33:04;22.70;28.50
11454;DHT22;5783;55.174;61.310;2023-04-06T02:35:33;22.70;28.50
11454;DHT22;5783;55.174;61.310;2023-04-06T02:38:02;22.80;28.40
11454;DHT22;5783;55.174;61.310;2023-04-06T02:40:31;22.80;28.10
11454;DHT22;5783;55.174;61.310;2023-04-06T02:43:00;22.80;28.10
11454;DHT22;5783;55.174;61.310;2023-04-06T02:45:29;22.90;28.00
11454;DHT22;5783;55.174;61.310;2023-04-06T02:47:58;22.90;28.00
11454;DHT22;5783;55.174;61.310;2023-04-06T02:50:27;22.90;28.00
11454;DHT22;5783;55.174;61.310;2023-04-06T02:52:56;22.90;28.00
11454;DHT22;5783;55.174;61.310;2023-04-06T02:55:25;22.90;28.00
11454;DHT22;5783;55.174;61.310;2023-04-06T02:57:54;22.90;27.90
11454;DHT22;5783;55.174;61.310;2023-04-06T03:00:24;23.00;28.20
11454;DHT22;5783;55.174;61.310;2023-04-06T03:02:53;23.00;28.20
11454;DHT22;5783;55.174;61.310;2023-04-06T03:05:22;23.00;28.30
11454;DHT22;5783;55.174;61.310;2023-04-06T03:07:51;23.00;28.40
11454;DHT22;5783;55.174;61.310;2023-04-06T03:10:20;23.10;28.50
11454;DHT22;5783;55.174;61.310;2023-04-06T03:12:49;23.00;28.40
11454;DHT22;5783;55.174;61.310;2023-04-06T03:15:18;23.10;28.50
11454;DHT22;5783;55.174;61.310;2023-04-06T03:17:47;23.10;28.50
11454;DHT22;5783;55.174;61.310;2023-04-06T03:20:16;23.10;28.50
11454;DHT22;5783;55.174;61.310;2023-04-06T03:22:45;23.10;28.50
11454;DHT22;5783;55.174;61.310;2023-04-06T03:25:15;23.10;28.50
11454;DHT22;5783;55.174;61.310;2023-04-06T03:27:44;23.20;28.60
11454;DHT22;5783;55.174;61.310;2023-04-06T03:30:13;23.20;28.50
11454;DHT22;5783;55.174;61.310;2023-04-06T03:32:44;23.20;28.40
11454;DHT22;5783;55.174;61.310;2023-04-06T03:35:13;23.20;28.40
11454;DHT22;5783;55.174;61.310;2023-04-06T03:37:42;23.20;28.20
11454;DHT22;5783;55.174;61.310;2023-04-06T03:40:12;23.20;28.20
11454;DHT22;5783;55.174;61.310;2023-04-06T03:42:42;23.20;28.20
11454;DHT22;5783;55.174;61.310;2023-04-06T03:45:11;23.20;28.50
11454;DHT22;5783;55.174;61.310;2023-04-06T03:47:40;23.20;28.30
11454;DHT22;5783;55.174;61.310;2023-04-06T03:50:10;23.20;28.20
11454;DHT22;5783;55.174;61.310;2023-04-06T03:52:39;23.20;28.30
11454;DHT22;5783;55.174;61.310;2023-04-06T03:55:08;23.30;28.30
11454;DHT22;5783;55.174;61.310;2023-04-06T03:57:37;23.30;28.40
11454;DHT22;5783;55.174;61.310;2023-04-06T04:00:07;23.30;28.30
11454;DHT22;5783;55.174;61.310;2023-04-06T04:02:36;23.30;28.50
11454;DHT22;5783;55.174;61.310;2023-04-06T04:05:06;23.30;28.50
11454;DHT22;5783;55.174;61.310;2023-04-06T04:07:35;23.20;28.40
11454;DHT22;5783;55.174;61.310;2023-04-06T04:10:05;23.20;28.40
11454;DHT22;5783;55.174;61.310;2023-04-06T04:12:34;23.20;28.40
11454;DHT22;5783;55.174;61.310;2023-04-06T04:15:03;23.20;28.40
11454;DHT22;5783;55.174;61.310;2023-04-06T04:17:32;23.30;28.30
11454;DHT22;5783;55.174;61.310;2023-04-06T04:20:02;23.30;28.30
11454;DHT22;5783;55.174;61.310;2023-04-06T04:22:31;23.30;28.30
11454;DHT22;5783;55.174;61.310;2023-04-06T04:25:00;23.30;28.10
11454;DHT22;5783;55.174;61.310;2023-04-06T04:27:30;23.30;28.20
11454;DHT22;5783;55.174;61.310;2023-04-06T04:29:59;23.30;28.20
11454;DHT22;5783;55.174;61.310;2023-04-06T04:32:30;23.30;28.10
11454;DHT22;5783;55.174;61.310;2023-04-06T04:34:59;23.40;27.50
11454;DHT22;5783;55.174;61.310;2023-04-06T04:37:28;23.50;27.40
11454;DHT22;5783;55.174;61.310;2023-04-06T04:39:57;23.50;27.10
11454;DHT22;5783;55.174;61.310;2023-04-06T04:42:46;23.60;27.30
11454;DHT22;5783;55.174;61.310;2023-04-06T04:45:17;23.70;27.50
11454;DHT22;5783;55.174;61.310;2023-04-06T04:47:46;23.70;27.70
11454;DHT22;5783;55.174;61.310;2023-04-06T04:50:15;23.70;27.70
11454;DHT22;5783;55.174;61.310;2023-04-06T04:52:44;23.80;27.90
11454;DHT22;5783;55.174;61.310;2023-04-06T04:55:14;23.90;36.70
11454;DHT22;5783;55.174;61.310;2023-04-06T04:57:44;23.90;29.30
11454;DHT22;5783;55.174;61.310;2023-04-06T05:00:13;23.90;34.80
11454;DHT22;5783;55.174;61.310;2023-04-06T05:02:43;24.00;28.50
11454;DHT22;5783;55.174;61.310;2023-04-06T05:05:12;24.10;27.80
11454;DHT22;5783;55.174;61.310;2023-04-06T05:07:41;24.20;27.50
11454;DHT22;5783;55.174;61.310;2023-04-06T05:10:10;24.40;27.20
11454;DHT22;5783;55.174;61.310;2023-04-06T05:12:40;24.50;26.40
11454;DHT22;5783;55.174;61.310;2023-04-06T05:15:10;24.70;26.00
11454;DHT22;5783;55.174;61.310;2023-04-06T05:17:39;24.80;26.10
11454;DHT22;5783;55.174;61.310;2023-04-06T05:20:09;24.90;25.80
11454;DHT22;5783;55.174;61.310;2023-04-06T05:22:38;25.00;25.70
11454;DHT22;5783;55.174;61.310;2023-04-06T05:25:07;25.00;25.30
11454;DHT22;5783;55.174;61.310;2023-04-06T05:27:37;25.00;25.00
11454;DHT22;5783;55.174;61.310;2023-04-06T05:30:07;25.10;25.30
11454;DHT22;5783;55.174;61.310;2023-04-06T05:32:36;25.10;25.20
11454;DHT22;5783;55.174;61.310;2023-04-06T05:35:06;25.10;25.20
11454;DHT22;5783;55.174;61.310;2023-04-06T05:37:35;25.10;25.10
11454;DHT22;5783;55.174;61.310;2023-04-06T05:40:05;25.10;25.00
11454;DHT22;5783;55.174;61.310;2023-04-06T05:42:54;25.10;24.80
11454;DHT22;5783;55.174;61.310;2023-04-06T05:45:24;25.00;24.70
11454;DHT22;5783;55.174;61.310;2023-04-06T05:47:53;25.00;24.80
11454;DHT22;5783;55.174;61.310;2023-04-06T05:50:22;24.90;24.80
11454;DHT22;5783;55.174;61.310;2023-04-06T05:52:51;24.90;24.90
11454;DHT22;5783;55.174;61.310;2023-04-06T05:55:20;25.00;24.80
11454;DHT22;5783;55.174;61.310;2023-04-06T05:57:49;25.00;24.80
11454;DHT22;5783;55.174;61.310;2023-04-06T06:00:19;25.00;24.80
11454;DHT22;5783;55.174;61.310;2023-04-06T06:02:48;24.90;24.80
11454;DHT22;5783;55.174;61.310;2023-04-06T06:05:17;24.90;24.90
11454;DHT22;5783;55.174;61.310;2023-04-06T06:07:46;24.90;25.00
11454;DHT22;5783;55.174;61.310;2023-04-06T06:10:16;24.90;25.00
11454;DHT22;5783;55.174;61.310;2023-04-06T06:12:45;24.90;24.90
11454;DHT22;5783;55.174;61.310;2023-04-06T06:15:14;24.90;24.90
11454;DHT22;5783;55.174;61.310;2023-04-06T06:17:43;24.90;24.90
11454;DHT22;5783;55.174;61.310;2023-04-06T06:20:12;24.80;24.80
11454;DHT22;5783;55.174;61.310;2023-04-06T06:22:42;24.80;24.80
11454;DHT22;5783;55.174;61.310;2023-04-06T06:25:11;24.80;24.80
11454;DHT22;5783;55.174;61.310;2023-04-06T06:27:40;24.80;24.80
11454;DHT22;5783;55.174;61.310;2023-04-06T06:30:09;24.70;24.80
11454;DHT22;5783;55.174;61.310;2023-04-06T06:32:38;24.70;24.90
11454;DHT22;5783;55.174;61.310;2023-04-06T06:35:08;24.70;24.70
11454;DHT22;5783;55.174;61.310;2023-04-06T06:37:37;24.50;24.70
11454;DHT22;5783;55.174;61.310;2023-04-06T06:40:07;24.50;24.80
11454;DHT22;5783;55.174;61.310;2023-04-06T06:42:36;24.40;25.00
11454;DHT22;5783;55.174;61.310;2023-04-06T06:45:07;24.40;25.30
11454;DHT22;5783;55.174;61.310;2023-04-06T06:47:37;24.50;25.80
11454;DHT22;5783;55.174;61.310;2023-04-06T06:50:07;24.50;26.30
11454;DHT22;5783;55.174;61.310;2023-04-06T06:52:36;24.60;25.40
11454;DHT22;5783;55.174;61.310;2023-04-06T06:55:06;24.60;24.90
11454;DHT22;5783;55.174;61.310;2023-04-06T06:57:38;24.70;25.70
11454;DHT22;5783;55.174;61.310;2023-04-06T07:00:09;24.70;25.40
11454;DHT22;5783;55.174;61.310;2023-04-06T07:02:40;24.70;25.00
11454;DHT22;5783;55.174;61.310;2023-04-06T07:05:09;24.70;25.10
11454;DHT22;5783;55.174;61.310;2023-04-06T07:07:38;24.70;24.90
11454;DHT22;5783;55.174;61.310;2023-04-06T07:10:08;24.70;24.90
11454;DHT22;5783;55.174;61.310;2023-04-06T07:12:37;24.70;24.80
11454;DHT22;5783;55.174;61.310;2023-04-06T07:15:07;24.70;24.70
11454;DHT22;5783;55.174;61.310;2023-04-06T07:17:36;24.70;24.60
11454;DHT22;5783;55.174;61.310;2023-04-06T07:20:07;24.70;24.50
11454;DHT22;5783;55.174;61.310;2023-04-06T07:23:09;24.70;24.50
11454;DHT22;5783;55.174;61.310;2023-04-06T07:25:08;24.60;24.50
11454;DHT22;5783;55.174;61.310;2023-04-06T07:27:37;24.60;24.50
11454;DHT22;5783;55.174;61.310;2023-04-06T07:30:07;24.60;24.40
11454;DHT22;5783;55.174;61.310;2023-04-06T07:32:37;24.60;24.30
11454;DHT22;5783;55.174;61.310;2023-04-06T07:35:06;24.70;24.00
11454;DHT22;5783;55.174;61.310;2023-04-06T07:37:35;24.70;23.40
11454;DHT22;5783;55.174;61.310;2023-04-06T07:40:05;24.70;23.50
11454;DHT22;5783;55.174;61.310;2023-04-06T07:42:34;24.70;24.00
11454;DHT22;5783;55.174;61.310;2023-04-06T07:45:04;24.80;23.60
11454;DHT22;5783;55.174;61.310;2023-04-06T07:47:34;24.80;23.70
11454;DHT22;5783;55.174;61.310;2023-04-06T07:50:03;24.80;23.40
11454;DHT22;5783;55.174;61.310;2023-04-06T07:52:33;24.80;23.60
11454;DHT22;5783;55.174;61.310;2023-04-06T07:55:02;24.80;23.40
11454;DHT22;5783;55.174;61.310;2023-04-06T07:57:31;24.90;23.50
11454;DHT22;5783;55.174;61.310;2023-04-06T08:00:00;24.90;23.50
11454;DHT22;5783;55.174;61.310;2023-04-06T08:02:51;24.90;23.60
11454;DHT22;5783;55.174;61.310;2023-04-06T08:05:20;24.90;23.50
11454;DHT22;5783;55.174;61.310;2023-04-06T08:07:49;24.90;23.50
11454;DHT22;5783;55.174;61.310;2023-04-06T08:10:18;25.00;23.50
11454;DHT22;5783;55.174;61.310;2023-04-06T08:12:47;25.00;23.40
11454;DHT22;5783;55.174;61.310;2023-04-06T08:15:16;25.10;23.70
11454;DHT22;5783;55.174;61.310;2023-04-06T08:17:46;25.10;23.30
11454;DHT22;5783;55.174;61.310;2023-04-06T08:20:15;25.10;23.30
11454;DHT22;5783;55.174;61.310;2023-04-06T08:22:44;25.20;23.50
11454;DHT22;5783;55.174;61.310;2023-04-06T08:25:13;25.20;23.30
11454;DHT22;5783;55.174;61.310;2023-04-06T08:27:42;25.20;23.30
11454;DHT22;5783;55.174;61.310;2023-04-06T08:30:11;25.20;23.30
11454;DHT22;5783;55.174;61.310;2023-04-06T08:32:42;25.20;23.30
11454;DHT22;5783;55.174;61.310;2023-04-06T08:35:12;25.20;23.40
11454;DHT22;5783;55.174;61.310;2023-04-06T08:37:42;25.20;23.50
11454;DHT22;5783;55.174;61.310;2023-04-06T08:40:12;25.20;23.70
11454;DHT22;5783;55.174;61.310;2023-04-06T08:45:34;25.20;23.40
11454;DHT22;5783;55.174;61.310;2023-04-06T08:48:03;25.10;23.20
11454;DHT22;5783;55.174;61.310;2023-04-06T08:50:34;25.10;22.90
11454;DHT22;5783;55.174;61.310;2023-04-06T08:53:03;25.10;23.10
11454;DHT22;5783;55.174;61.310;2023-04-06T08:55:33;25.00;23.10
11454;DHT22;5783;55.174;61.310;2023-04-06T08:58:03;25.00;23.20
11454;DHT22;5783;55.174;61.310;2023-04-06T09:00:33;25.10;23.40
11454;DHT22;5783;55.174;61.310;2023-04-06T09:03:04;25.10;23.40
11454;DHT22;5783;55.174;61.310;2023-04-06T09:05:35;25.10;23.50
11454;DHT22;5783;55.174;61.310;2023-04-06T09:08:04;25.10;23.40
11454;DHT22;5783;55.174;61.310;2023-04-06T09:10:34;25.10;23.50
11454;DHT22;5783;55.174;61.310;2023-04-06T09:13:04;25.10;23.60
11454;DHT22;5783;55.174;61.310;2023-04-06T09:15:34;25.20;23.70
11454;DHT22;5783;55.174;61.310;2023-04-06T09:18:04;25.10;23.50
11454;DHT22;5783;55.174;61.310;2023-04-06T09:20:36;25.20;23.40
11454;DHT22;5783;55.174;61.310;2023-04-06T09:23:06;25.20;23.40
11454;DHT22;5783;55.174;61.310;2023-04-06T09:25:35;25.20;23.40
11454;DHT22;5783;55.174;61.310;2023-04-06T09:30:34;25.30;22.80
11454;DHT22;5783;55.174;61.310;2023-04-06T09:33:05;25.20;23.60
11454;DHT22;5783;55.174;61.310;2023-04-06T09:35:34;25.20;23.50
11454;DHT22;5783;55.174;61.310;2023-04-06T09:38:10;25.30;23.60
11454;DHT22;5783;55.174;61.310;2023-04-06T09:40:35;25.20;24.30
11454;DHT22;5783;55.174;61.310;2023-04-06T09:43:04;25.30;23.80
11454;DHT22;5783;55.174;61.310;2023-04-06T09:45:33;25.30;23.30
11454;DHT22;5783;55.174;61.310;2023-04-06T09:48:03;25.30;23.20
11454;DHT22;5783;55.174;61.310;2023-04-06T09:50:33;25.30;23.30
11454;DHT22;5783;55.174;61.310;2023-04-06T09:53:04;25.30;23.40
11454;DHT22;5783;55.174;61.310;2023-04-06T09:56:06;25.30;23.50
11454;DHT22;5783;55.174;61.310;2023-04-06T09:58:26;25.30;23.80
11454;DHT22;5783;55.174;61.310;2023-04-06T10:01:16;25.30;23.70
11454;DHT22;5783;55.174;61.310;2023-04-06T10:06:58;25.30;23.40
11454;DHT22;5783;55.174;61.310;2023-04-06T10:09:47;25.30;23.40
11454;DHT22;5783;55.174;61.310;2023-04-06T10:12:16;25.30;23.50
11454;DHT22;5783;55.174;61.310;2023-04-06T10:14:46;25.30;23.50
11454;DHT22;5783;55.174;61.310;2023-04-06T10:17:15;25.30;23.40
11454;DHT22;5783;55.174;61.310;2023-04-06T10:20:07;25.30;23.30
11454;DHT22;5783;55.174;61.310;2023-04-06T10:26:12;25.40;24.10
11454;DHT22;5783;55.174;61.310;2023-04-06T10:28:37;25.30;23.30
11454;DHT22;5783;55.174;61.310;2023-04-06T10:31:06;25.30;23.20
11454;DHT22;5783;55.174;61.310;2023-04-06T10:33:35;25.30;23.30
11454;DHT22;5783;55.174;61.310;2023-04-06T10:36:57;25.30;23.30
11454;DHT22;5783;55.174;61.310;2023-04-06T10:38:58;25.40;23.30
11454;DHT22;5783;55.174;61.310;2023-04-06T10:44:56;25.40;23.50
11454;DHT22;5783;55.174;61.310;2023-04-06T10:47:26;25.40;23.60
11454;DHT22;5783;55.174;61.310;2023-04-06T10:49:55;25.40;23.80
11454;DHT22;5783;55.174;61.310;2023-04-06T10:52:24;25.50;23.80
11454;DHT22;5783;55.174;61.310;2023-04-06T10:54:54;25.50;23.90
11454;DHT22;5783;55.174;61.310;2023-04-06T10:57:45;25.60;23.90
11454;DHT22;5783;55.174;61.310;2023-04-06T11:03:25;25.50;23.70
11454;DHT22;5783;55.174;61.310;2023-04-06T11:08:44;25.60;23.60
11454;DHT22;5783;55.174;61.310;2023-04-06T11:16:18;25.60;23.60
11454;DHT22;5783;55.174;61.310;2023-04-06T11:19:07;25.60;23.60
11454;DHT22;5783;55.174;61.310;2023-04-06T11:22:05;25.60;23.50
11454;DHT22;5783;55.174;61.310;2023-04-06T11:24:29;25.60;23.60
11454;DHT22;5783;55.174;61.310;2023-04-06T11:27:30;25.60;23.40
11454;DHT22;5783;55.174;61.310;2023-04-06T11:29:32;25.60;23.60
11454;DHT22;5783;55.174;61.310;2023-04-06T11:32:04;25.60;23.60
11454;DHT22;5783;55.174;61.310;2023-04-06T11:34:54;25.60;23.40
11454;DHT22;5783;55.174;61.310;2023-04-06T11:37:27;25.60;23.30
11454;DHT22;5783;55.174;61.310;2023-04-06T11:39:56;25.60;23.60
11454;DHT22;5783;55.174;61.310;2023-04-06T11:42:27;25.60;23.80
11454;DHT22;5783;55.174;61.310;2023-04-06T11:45:16;25.60;23.90
11454;DHT22;5783;55.174;61.310;2023-04-06T11:47:54;25.60;24.10
11454;DHT22;5783;55.174;61.310;2023-04-06T11:50:36;25.60;24.30
11454;DHT22;5783;55.174;61.310;2023-04-06T11:53:05;25.60;24.40
11454;DHT22;5783;55.174;61.310;2023-04-06T11:55:54;25.50;24.70
11454;DHT22;5783;55.174;61.310;2023-04-06T11:58:23;25.60;24.50
11454;DHT22;5783;55.174;61.310;2023-04-06T12:00:53;25.50;24.60
11454;DHT22;5783;55.174;61.310;2023-04-06T12:03:22;25.50;24.70
11454;DHT22;5783;55.174;61.310;2023-04-06T12:05:51;25.50;25.40
11454;DHT22;5783;55.174;61.310;2023-04-06T12:08:20;25.60;25.40
11454;DHT22;5783;55.174;61.310;2023-04-06T12:10:51;25.60;24.90
11454;DHT22;5783;55.174;61.310;2023-04-06T12:13:21;25.70;24.60
11454;DHT22;5783;55.174;61.310;2023-04-06T12:15:50;25.70;24.30
11454;DHT22;5783;55.174;61.310;2023-04-06T12:18:19;25.70;24.30
11454;DHT22;5783;55.174;61.310;2023-04-06T12:20:48;25.60;24.10
11454;DHT22;5783;55.174;61.310;2023-04-06T12:23:18;25.60;24.10
11454;DHT22;5783;55.174;61.310;2023-04-06T12:25:48;25.60;24.20
11454;DHT22;5783;55.174;61.310;2023-04-06T12:28:17;25.60;24.10
11454;DHT22;5783;55.174;61.310;2023-04-06T12:30:48;25.50;24.00
11454;DHT22;5783;55.174;61.310;2023-04-06T12:33:17;25.50;24.00
11454;DHT22;5783;55.174;61.310;2023-04-06T12:35:47;25.50;24.10
11454;DHT22;5783;55.174;61.310;2023-04-06T12:38:16;25.50;24.20
11454;DHT22;5783;55.174;61.310;2023-04-06T12:40:47;25.50;24.40
11454;DHT22;5783;55.174;61.310;2023-04-06T12:43:16;25.50;24.50
11454;DHT22;5783;55.174;61.310;2023-04-06T12:45:46;25.50;24.60
11454;DHT22;5783;55.174;61.310;2023-04-06T12:48:15;25.50;24.60
11454;DHT22;5783;55.174;61.310;2023-04-06T12:50:44;25.50;24.60
11454;DHT22;5783;55.174;61.310;2023-04-06T12:53:13;25.50;24.60
11454;DHT22;5783;55.174;61.310;2023-04-06T12:55:43;25.40;24.50
11454;DHT22;5783;55.174;61.310;2023-04-06T12:58:12;25.40;24.60
11454;DHT22;5783;55.174;61.310;2023-04-06T13:00:41;25.40;24.60
11454;DHT22;5783;55.174;61.310;2023-04-06T13:03:11;25.30;24.60
11454;DHT22;5783;55.174;61.310;2023-04-06T13:06:00;25.30;24.70
11454;DHT22;5783;55.174;61.310;2023-04-06T13:08:29;25.30;24.80
11454;DHT22;5783;55.174;61.310;2023-04-06T13:10:58;25.30;25.00
11454;DHT22;5783;55.174;61.310;2023-04-06T13:13:28;25.30;25.10
11454;DHT22;5783;55.174;61.310;2023-04-06T13:16:17;25.30;25.10
11454;DHT22;5783;55.174;61.310;2023-04-06T13:18:47;25.30;25.40
11454;DHT22;5783;55.174;61.310;2023-04-06T13:21:17;25.30;25.40
11454;DHT22;5783;55.174;61.310;2023-04-06T13:23:47;25.30;25.40
11454;DHT22;5783;55.174;61.310;2023-04-06T13:26:16;25.30;25.30
11454;DHT22;5783;55.174;61.310;2023-04-06T13:28:46;25.20;25.10
11454;DHT22;5783;55.174;61.310;2023-04-06T13:31:15;25.20;25.10
11454;DHT22;5783;55.174;61.310;2023-04-06T13:33:44;25.10;25.20
11454;DHT22;5783;55.174;61.310;2023-04-06T13:36:14;25.00;25.20
11454;DHT22;5783;55.174;61.310;2023-04-06T13:38:43;25.00;25.20
11454;DHT22;5783;55.174;61.310;2023-04-06T13:41:32;25.00;25.30
11454;DHT22;5783;55.174;61.310;2023-04-06T13:44:04;24.90;25.40
11454;DHT22;5783;55.174;61.310;2023-04-06T13:46:33;24.90;25.40
11454;DHT22;5783;55.174;61.310;2023-04-06T13:49:02;24.80;25.50
11454;DHT22;5783;55.174;61.310;2023-04-06T13:51:32;24.80;25.80
11454;DHT22;5783;55.174;61.310;2023-04-06T13:54:01;24.80;25.80
11454;DHT22;5783;55.174;61.310;2023-04-06T13:56:30;24.80;25.80
11454;DHT22;5783;55.174;61.310;2023-04-06T13:59:02;24.80;25.90
11454;DHT22;5783;55.174;61.310;2023-04-06T14:01:32;24.80;25.80
11454;DHT22;5783;55.174;61.310;2023-04-06T14:04:01;24.70;25.80
11454;DHT22;5783;55.174;61.310;2023-04-06T14:06:30;24.70;25.70
11454;DHT22;5783;55.174;61.310;2023-04-06T14:08:59;24.70;25.80
11454;DHT22;5783;55.174;61.310;2023-04-06T14:11:28;24.70;25.80
11454;DHT22;5783;55.174;61.310;2023-04-06T14:13:58;24.60;25.90
11454;DHT22;5783;55.174;61.310;2023-04-06T14:16:28;24.60;25.90
11454;DHT22;5783;55.174;61.310;2023-04-06T14:18:58;24.60;25.90
11454;DHT22;5783;55.174;61.310;2023-04-06T14:23:56;24.50;31.60
11454;DHT22;5783;55.174;61.310;2023-04-06T14:26:25;24.50;26.20
11454;DHT22;5783;55.174;61.310;2023-04-06T14:28:54;24.50;28.30
11454;DHT22;5783;55.174;61.310;2023-04-06T14:31:23;24.40;26.40
11454;DHT22;5783;55.174;61.310;2023-04-06T14:33:53;24.30;26.80
11454;DHT22;5783;55.174;61.310;2023-04-06T14:36:22;24.30;26.50
11454;DHT22;5783;55.174;61.310;2023-04-06T14:38:53;24.30;26.60
11454;DHT22;5783;55.174;61.310;2023-04-06T14:41:23;24.30;26.60
11454;DHT22;5783;55.174;61.310;2023-04-06T14:43:53;24.20;26.80
11454;DHT22;5783;55.174;61.310;2023-04-06T14:46:22;24.20;27.00
11454;DHT22;5783;55.174;61.310;2023-04-06T14:49:13;24.10;26.90
11454;DHT22;5783;55.174;61.310;2023-04-06T14:51:42;24.10;27.00
11454;DHT22;5783;55.174;61.310;2023-04-06T14:54:11;24.10;27.20
11454;DHT22;5783;55.174;61.310;2023-04-06T14:56:40;24.00;27.20
11454;DHT22;5783;55.174;61.310;2023-04-06T14:59:09;24.00;27.30
11454;DHT22;5783;55.174;61.310;2023-04-06T15:01:39;24.00;27.20
11454;DHT22;5783;55.174;61.310;2023-04-06T15:04:08;23.90;27.40
11454;DHT22;5783;55.174;61.310;2023-04-06T15:06:37;23.90;27.70
11454;DHT22;5783;55.174;61.310;2023-04-06T15:09:06;23.90;27.90
11454;DHT22;5783;55.174;61.310;2023-04-06T15:11:36;23.80;28.10
11454;DHT22;5783;55.174;61.310;2023-04-06T15:14:06;23.80;29.50
11454;DHT22;5783;55.174;61.310;2023-04-06T15:16:35;23.70;28.50
11454;DHT22;5783;55.174;61.310;2023-04-06T15:19:05;23.70;28.70
11454;DHT22;5783;55.174;61.310;2023-04-06T15:21:35;23.60;28.90
11454;DHT22;5783;55.174;61.310;2023-04-06T15:24:04;23.60;29.00
11454;DHT22;5783;55.174;61.310;2023-04-06T15:26:36;23.50;29.00
11454;DHT22;5783;55.174;61.310;2023-04-06T15:29:05;23.50;29.10
11454;DHT22;5783;55.174;61.310;2023-04-06T15:31:34;23.50;29.00
11454;DHT22;5783;55.174;61.310;2023-04-06T15:34:24;23.50;29.10
11454;DHT22;5783;55.174;61.310;2023-04-06T15:36:55;23.50;29.10
11454;DHT22;5783;55.174;61.310;2023-04-06T15:39:26;23.40;29.20
11454;DHT22;5783;55.174;61.310;2023-04-06T15:42:28;23.40;29.20
11454;DHT22;5783;55.174;61.310;2023-04-06T15:44:26;23.30;29.30
11454;DHT22;5783;55.174;61.310;2023-04-06T15:46:55;23.30;29.30
11454;DHT22;5783;55.174;61.310;2023-04-06T15:49:25;23.30;29.30
11454;DHT22;5783;55.174;61.310;2023-04-06T15:51:54;23.20;29.40
11454;DHT22;5783;55.174;61.310;2023-04-06T15:54:23;23.20;29.50
11454;DHT22;5783;55.174;61.310;2023-04-06T15:56:52;23.10;29.60
11454;DHT22;5783;55.174;61.310;2023-04-06T15:59:22;23.10;29.70
11454;DHT22;5783;55.174;61.310;2023-04-06T16:01:51;23.10;29.80
11454;DHT22;5783;55.174;61.310;2023-04-06T16:04:20;23.10;29.90
11454;DHT22;5783;55.174;61.310;2023-04-06T16:06:49;23.00;30.00
11454;DHT22;5783;55.174;61.310;2023-04-06T16:09:18;23.00;30.00
11454;DHT22;5783;55.174;61.310;2023-04-06T16:11:48;23.00;30.10
11454;DHT22;5783;55.174;61.310;2023-04-06T16:14:17;23.00;30.20
11454;DHT22;5783;55.174;61.310;2023-04-06T16:16:46;22.90;30.20
11454;DHT22;5783;55.174;61.310;2023-04-06T16:19:16;22.90;30.50